createdAt,value
2019-05-18T00:00:55.898Z,15.20
2019-05-18T00:03:24.977Z,15.90
2019-05-18T00:05:54.066Z,17.47
2019-05-18T00:08:23.130Z,19.77
2019-05-18T00:10:52.234Z,17.63
2019-05-18T00:13:21.726Z,16.23
2019-05-18T00:15:51.029Z,17.37
2019-05-18T00:18:20.143Z,18.77
2019-05-18T00:20:49.466Z,17.63
2019-05-18T00:23:19.138Z,18.80
2019-05-18T00:25:48.222Z,17.53
2019-05-18T00:28:17.327Z,17.87
2019-05-18T00:30:46.463Z,18.70
2019-05-18T00:33:15.718Z,19.83
2019-05-18T00:35:44.830Z,17.70
2019-05-18T00:38:13.907Z,16.03
2019-05-18T00:40:43.378Z,19.93
2019-05-18T00:43:12.488Z,19.57
2019-05-18T00:45:41.590Z,21.50
2019-05-18T00:48:10.707Z,18.47
2019-05-18T00:50:40.374Z,22.00
2019-05-18T00:53:09.482Z,18.77
2019-05-18T00:55:38.630Z,18.10
2019-05-18T00:58:07.949Z,18.43
2019-05-18T01:00:37.138Z,21.17
2019-05-18T01:03:06.542Z,21.63
2019-05-18T01:05:37.980Z,21.63
2019-05-18T01:08:08.102Z,20.27
2019-05-18T01:10:37.442Z,19.57
2019-05-18T01:13:06.843Z,20.10
2019-05-18T01:15:35.959Z,21.50
2019-05-18T01:18:05.066Z,19.93
2019-05-18T01:20:34.179Z,22.17
2019-05-18T01:23:03.627Z,20.73
2019-05-18T01:25:36.427Z,18.77
2019-05-18T01:28:05.866Z,22.80
2019-05-18T01:30:35.030Z,22.53
2019-05-18T01:33:04.553Z,20.87
2019-05-18T01:35:33.638Z,20.10
2019-05-18T01:38:03.063Z,24.10
2019-05-18T01:40:32.220Z,21.83
2019-05-18T01:43:01.920Z,27.30
2019-05-18T01:45:31.069Z,22.47
2019-05-18T01:48:14.230Z,20.47
2019-05-18T01:50:38.914Z,22.60
2019-05-18T01:53:08.314Z,22.87
2019-05-18T01:55:37.439Z,25.47
2019-05-18T01:58:06.576Z,21.67
2019-05-18T02:00:35.655Z,22.17
2019-05-18T02:03:05.443Z,25.90
2019-05-18T02:05:34.566Z,23.90
2019-05-18T02:08:03.970Z,22.43
2019-05-18T02:10:33.024Z,24.13
2019-05-18T02:13:02.758Z,23.60
2019-05-18T02:15:32.013Z,24.53
2019-05-18T02:18:01.130Z,28.00
2019-05-18T02:20:30.470Z,24.87
2019-05-18T02:22:59.808Z,27.60
2019-05-18T02:25:28.909Z,24.03
2019-05-18T02:27:58.014Z,28.77
2019-05-18T02:30:27.148Z,26.57
2019-05-18T02:32:56.253Z,25.70
2019-05-18T02:35:25.318Z,23.87
2019-05-18T02:37:56.091Z,27.43
2019-05-18T02:40:25.193Z,28.07
2019-05-18T02:42:54.486Z,27.33
2019-05-18T02:45:23.866Z,25.13
2019-05-18T02:47:53.221Z,27.50
2019-05-18T02:50:22.279Z,30.03
2019-05-18T02:52:51.623Z,26.07
2019-05-18T02:55:20.743Z,25.03
2019-05-18T02:57:49.833Z,26.97
2019-05-18T03:00:19.025Z,31.10
2019-05-18T03:02:48.160Z,29.27
2019-05-18T03:05:17.243Z,27.40
2019-05-18T03:07:46.330Z,27.03
2019-05-18T03:10:15.620Z,25.77
2019-05-18T03:12:44.794Z,28.53
2019-05-18T03:15:14.155Z,25.97
2019-05-18T03:17:43.635Z,31.03
2019-05-18T03:20:13.259Z,28.87
2019-05-18T03:22:42.345Z,28.23
2019-05-18T03:25:11.432Z,30.03
2019-05-18T03:27:40.526Z,28.83
2019-05-18T03:30:10.258Z,28.23
2019-05-18T03:32:39.315Z,29.93
2019-05-18T03:35:08.531Z,30.03
2019-05-18T03:37:38.213Z,32.13
2019-05-18T03:40:07.647Z,30.13
2019-05-18T03:42:36.744Z,30.87
2019-05-18T03:45:06.694Z,27.13
2019-05-18T03:47:36.024Z,32.27
2019-05-18T03:50:05.412Z,30.07
2019-05-18T03:52:34.481Z,32.27
2019-05-18T03:55:03.820Z,28.97
2019-05-18T03:57:32.886Z,31.67
2019-05-18T04:00:02.086Z,26.53
2019-05-18T04:02:31.670Z,27.00
2019-05-18T04:05:00.772Z,29.43
2019-05-18T04:07:29.939Z,29.50
2019-05-18T04:09:59.569Z,30.47
2019-05-18T04:12:28.742Z,29.70
2019-05-18T04:14:57.843Z,30.50
2019-05-18T04:17:27.018Z,28.53
2019-05-18T04:19:56.154Z,29.60
2019-05-18T04:22:25.232Z,31.80
2019-05-18T04:24:54.625Z,34.50
2019-05-18T04:27:23.783Z,33.17
2019-05-18T04:29:52.870Z,32.60
2019-05-18T04:32:21.928Z,30.13
2019-05-18T04:34:51.019Z,27.93
2019-05-18T04:37:20.109Z,31.07
2019-05-18T04:39:49.683Z,33.27
2019-05-18T04:42:18.783Z,31.53
2019-05-18T04:44:47.867Z,31.23
2019-05-18T04:47:16.970Z,30.73
2019-05-18T04:50:03.545Z,32.57
2019-05-18T04:52:16.939Z,32.30
2019-05-18T04:54:46.078Z,34.87
2019-05-18T04:57:15.243Z,33.10
2019-05-18T04:59:44.365Z,30.17
2019-05-18T05:02:13.922Z,28.43
2019-05-18T05:04:43.039Z,31.40
2019-05-18T05:07:12.128Z,27.10
2019-05-18T05:09:41.288Z,32.07
2019-05-18T05:12:10.439Z,32.10
2019-05-18T05:14:39.509Z,33.40
2019-05-18T05:17:08.959Z,31.17
2019-05-18T05:19:38.084Z,31.33
2019-05-18T05:22:07.441Z,30.17
2019-05-18T05:24:37.372Z,31.90
2019-05-18T05:27:07.136Z,30.07
2019-05-18T05:29:36.219Z,30.17
2019-05-18T05:32:05.330Z,28.37
2019-05-18T05:34:34.497Z,29.57
2019-05-18T05:37:03.836Z,28.30
2019-05-18T05:39:32.934Z,30.43
2019-05-18T05:42:03.404Z,27.63
2019-05-18T05:44:32.497Z,26.63
2019-05-18T05:47:02.081Z,30.17
2019-05-18T05:49:31.306Z,31.53
2019-05-18T05:52:00.367Z,27.83
2019-05-18T05:54:29.442Z,24.37
2019-05-18T05:56:58.542Z,28.60
2019-05-18T05:59:27.657Z,24.13
2019-05-18T06:01:56.731Z,23.83
2019-05-18T06:04:25.840Z,24.07
2019-05-18T06:06:54.929Z,24.00
2019-05-18T06:09:24.062Z,22.60
2019-05-18T06:11:53.136Z,19.90
2019-05-18T06:14:22.222Z,22.90
2019-05-18T06:16:51.354Z,21.07
2019-05-18T06:19:20.534Z,20.20
2019-05-18T06:21:49.742Z,19.37
2019-05-18T06:24:19.640Z,19.07
2019-05-18T06:26:48.748Z,16.47
2019-05-18T06:29:17.818Z,16.83
2019-05-18T06:31:46.956Z,16.67
2019-05-18T06:34:16.141Z,17.63
2019-05-18T06:36:45.244Z,18.53
2019-05-18T06:39:14.614Z,18.27
2019-05-18T06:41:43.707Z,16.80
2019-05-18T06:44:12.877Z,18.17
2019-05-18T06:46:42.025Z,17.23
2019-05-18T06:49:11.770Z,15.13
2019-05-18T06:51:41.106Z,15.93
2019-05-18T06:54:10.215Z,13.00
2019-05-18T06:56:40.739Z,15.47
2019-05-18T06:59:10.266Z,13.57
2019-05-18T07:01:39.624Z,14.63
2019-05-18T07:04:08.980Z,15.87
2019-05-18T07:06:40.724Z,13.83
2019-05-18T07:09:14.525Z,11.90
2019-05-18T07:11:43.983Z,13.97
2019-05-18T07:14:24.843Z,13.87
2019-05-18T07:16:43.924Z,15.83
2019-05-18T07:19:13.033Z,13.20
2019-05-18T07:21:42.124Z,14.70
2019-05-18T07:24:11.322Z,12.47
2019-05-18T07:26:40.423Z,11.80
2019-05-18T07:29:09.738Z,10.87
2019-05-18T07:31:42.126Z,10.90
2019-05-18T07:34:11.200Z,11.30
2019-05-18T07:36:40.294Z,9.77
2019-05-18T07:39:09.379Z,12.00
2019-05-18T07:41:46.242Z,8.63
2019-05-18T07:44:09.675Z,9.57
2019-05-18T07:46:38.767Z,11.07
2019-05-18T07:49:07.873Z,11.17
2019-05-18T07:51:37.536Z,9.17
2019-05-18T07:54:07.039Z,12.43
2019-05-18T07:56:36.194Z,9.90
2019-05-18T07:59:05.322Z,13.27
2019-05-18T08:01:34.486Z,10.10
2019-05-18T08:04:03.600Z,13.40
2019-05-18T08:06:33.349Z,11.27
2019-05-18T08:09:02.505Z,9.90
2019-05-18T08:11:31.614Z,12.13
2019-05-18T08:14:00.733Z,10.53
2019-05-18T08:16:29.943Z,14.07
2019-05-18T08:18:59.011Z,9.97
2019-05-18T08:21:28.094Z,10.77
2019-05-18T08:23:57.386Z,10.67
2019-05-18T08:26:26.487Z,11.00
2019-05-18T08:28:55.556Z,10.13
2019-05-18T08:31:24.723Z,10.27
2019-05-18T08:33:53.896Z,8.53
2019-05-18T08:36:23.309Z,9.33
2019-05-18T08:38:52.412Z,8.60
2019-05-18T08:41:21.494Z,8.57
2019-05-18T08:43:50.896Z,11.67
2019-05-18T08:46:20.022Z,12.40
2019-05-18T08:48:49.084Z,9.20
2019-05-18T08:51:18.192Z,10.37
2019-05-18T08:53:47.310Z,7.63
2019-05-18T08:56:16.413Z,9.97
2019-05-18T08:58:46.067Z,8.57
2019-05-18T09:01:15.201Z,10.33
2019-05-18T09:03:44.482Z,10.00
2019-05-18T09:06:13.720Z,11.73
2019-05-18T09:08:42.801Z,9.70
2019-05-18T09:11:12.294Z,9.50
2019-05-18T09:13:41.408Z,8.90
2019-05-18T09:16:10.510Z,9.47
2019-05-18T09:18:39.737Z,8.60
2019-05-18T09:21:09.266Z,7.60
2019-05-18T09:23:38.343Z,9.77
2019-05-18T09:26:07.435Z,11.60
2019-05-18T09:28:36.619Z,6.63
2019-05-18T09:31:05.712Z,7.60
2019-05-18T09:33:35.151Z,7.13
2019-05-18T09:36:04.975Z,7.63
2019-05-18T09:38:34.092Z,9.03
2019-05-18T09:41:03.498Z,8.63
2019-05-18T09:43:32.874Z,6.83
2019-05-18T09:46:01.956Z,7.50
2019-05-18T09:48:31.143Z,8.10
2019-05-18T09:51:00.679Z,8.40
2019-05-18T09:53:30.300Z,7.20
2019-05-18T09:55:59.371Z,7.17
2019-05-18T09:58:28.457Z,7.63
2019-05-18T10:00:57.553Z,6.60
2019-05-18T10:03:26.936Z,7.90
2019-05-18T10:05:56.460Z,6.90
2019-05-18T10:08:25.537Z,7.40
2019-05-18T10:10:54.723Z,7.47
2019-05-18T10:13:23.830Z,7.27
2019-05-18T10:15:52.971Z,6.67
2019-05-18T10:18:22.085Z,7.77
2019-05-18T10:20:51.433Z,8.23
2019-05-18T10:23:20.816Z,8.30
2019-05-18T10:25:49.966Z,8.57
2019-05-18T10:28:19.374Z,12.63
2019-05-18T10:30:48.442Z,9.37
2019-05-18T10:33:17.738Z,8.50
2019-05-18T10:35:46.950Z,14.07
2019-05-18T10:38:16.038Z,8.47
2019-05-18T10:40:45.408Z,8.83
2019-05-18T10:43:14.874Z,9.50
2019-05-18T10:45:45.207Z,10.00
2019-05-18T10:48:16.163Z,10.87
2019-05-18T10:50:47.015Z,8.70
2019-05-18T10:53:28.319Z,20.17
2019-05-18T10:55:47.182Z,12.60
2019-05-18T10:58:16.868Z,31.67
2019-05-18T11:00:46.066Z,16.33
2019-05-18T11:03:15.346Z,10.23
2019-05-18T11:05:44.480Z,9.77
2019-05-18T11:08:14.556Z,9.83
2019-05-18T11:10:43.638Z,7.97
2019-05-18T11:13:12.798Z,8.43
2019-05-18T11:15:42.020Z,8.27
2019-05-18T11:18:11.151Z,8.63
2019-05-18T11:20:41.036Z,8.53
2019-05-18T11:23:10.523Z,8.23
2019-05-18T11:25:40.071Z,8.27
2019-05-18T11:28:09.195Z,9.07
2019-05-18T11:30:38.653Z,7.27
2019-05-18T11:33:08.132Z,7.77
2019-05-18T11:35:37.235Z,7.87
2019-05-18T11:38:06.315Z,8.20
2019-05-18T11:40:35.426Z,6.90
2019-05-18T11:43:04.983Z,7.23
2019-05-18T11:45:34.060Z,8.10
2019-05-18T11:48:03.187Z,8.63
2019-05-18T11:50:32.340Z,6.80
2019-05-18T11:53:01.832Z,7.30
2019-05-18T11:55:31.182Z,5.53
2019-05-18T11:58:00.303Z,6.80
2019-05-18T12:00:29.496Z,5.07
2019-05-18T12:02:58.885Z,6.97
2019-05-18T12:05:28.136Z,6.43
2019-05-18T12:07:57.238Z,6.00
2019-05-18T12:10:26.375Z,6.33
2019-05-18T12:12:55.741Z,5.13
2019-05-18T12:15:24.900Z,5.13
2019-05-18T12:17:54.444Z,8.97
2019-05-18T12:20:24.201Z,5.00
2019-05-18T12:22:54.076Z,4.10
2019-05-18T12:25:23.139Z,7.70
2019-05-18T12:27:52.271Z,5.50
2019-05-18T12:30:21.439Z,4.40
2019-05-18T12:32:50.518Z,4.83
2019-05-18T12:35:19.579Z,5.30
2019-05-18T12:37:48.959Z,7.87
2019-05-18T12:40:21.314Z,4.53
2019-05-18T12:42:50.438Z,6.63
2019-05-18T12:45:19.891Z,6.00
2019-05-18T12:47:49.497Z,4.23
2019-05-18T12:50:19.735Z,4.47
2019-05-18T12:52:48.809Z,5.07
2019-05-18T12:55:18.405Z,5.23
2019-05-18T12:57:47.526Z,6.10
2019-05-18T13:00:17.886Z,5.30
2019-05-18T13:02:47.067Z,5.30
2019-05-18T13:05:16.300Z,8.57
2019-05-18T13:07:45.405Z,5.53
2019-05-18T13:10:16.075Z,4.80
2019-05-18T13:12:45.243Z,7.43
2019-05-18T13:15:15.670Z,4.70
2019-05-18T13:17:45.037Z,4.27
2019-05-18T13:20:14.986Z,4.10
2019-05-18T13:22:44.173Z,3.97
2019-05-18T13:25:15.133Z,3.90
2019-05-18T13:27:44.391Z,4.83
2019-05-18T13:30:19.743Z,4.07
2019-05-18T13:32:46.888Z,5.70
2019-05-18T13:35:16.198Z,4.77
2019-05-18T13:37:50.047Z,21.57
2019-05-18T13:40:20.324Z,8.73
2019-05-18T13:42:49.496Z,4.00
2019-05-18T13:45:18.782Z,5.13
2019-05-18T13:47:47.926Z,5.50
2019-05-18T13:50:16.990Z,5.40
2019-05-18T13:52:50.813Z,3.80
2019-05-18T13:55:20.098Z,24.70
2019-05-18T13:57:49.193Z,12.00
2019-05-18T14:00:19.127Z,4.50
2019-05-18T14:02:48.302Z,11.57
2019-05-18T14:05:17.862Z,4.67
2019-05-18T14:07:47.287Z,9.40
2019-05-18T14:10:17.333Z,5.73
2019-05-18T14:12:46.564Z,6.93
2019-05-18T14:15:15.627Z,6.50
2019-05-18T14:17:45.075Z,4.33
2019-05-18T14:20:14.878Z,5.20
2019-05-18T14:22:44.654Z,9.93
2019-05-18T14:25:19.335Z,4.47
2019-05-18T14:27:44.623Z,6.00
2019-05-18T14:30:13.970Z,5.20
2019-05-18T14:32:43.485Z,4.37
2019-05-18T14:35:12.863Z,5.58
2019-05-18T14:37:41.935Z,6.53
2019-05-18T14:40:11.723Z,16.00
2019-05-18T14:42:40.873Z,5.10
2019-05-18T14:45:10.972Z,4.53
2019-05-18T14:47:40.123Z,5.22
2019-05-18T14:50:09.867Z,3.40
2019-05-18T14:52:38.948Z,3.60
2019-05-18T14:55:09.801Z,4.40
2019-05-18T14:57:38.904Z,5.70
2019-05-18T15:00:10.285Z,7.20
2019-05-18T15:02:39.507Z,4.17
2019-05-18T15:05:08.691Z,4.10
2019-05-18T15:07:37.764Z,3.80
2019-05-18T15:10:07.911Z,4.03
2019-05-18T15:12:37.291Z,6.23
2019-05-18T15:15:07.296Z,3.80
2019-05-18T15:17:37.130Z,4.50
2019-05-18T15:20:06.603Z,3.37
2019-05-18T15:22:35.962Z,3.00
2019-05-18T15:25:05.146Z,4.00
2019-05-18T15:27:34.243Z,3.90
2019-05-18T15:30:03.377Z,3.85
2019-05-18T15:32:32.501Z,5.23
2019-05-18T15:35:01.879Z,3.30
2019-05-18T15:37:31.255Z,6.08
2019-05-18T15:40:00.944Z,6.80
2019-05-18T15:42:30.315Z,4.63
2019-05-18T15:44:59.713Z,4.30
2019-05-18T15:47:29.126Z,5.30
2019-05-18T15:49:58.547Z,4.00
2019-05-18T15:52:27.619Z,3.83
2019-05-18T15:55:00.451Z,3.70
2019-05-18T15:57:29.553Z,3.53
2019-05-18T15:59:58.734Z,4.43
2019-05-18T16:02:27.899Z,3.10
2019-05-18T16:04:57.250Z,3.23
2019-05-18T16:07:26.353Z,3.70
2019-05-18T16:09:55.860Z,2.80
2019-05-18T16:12:25.022Z,2.90
2019-05-18T16:14:54.379Z,5.33
2019-05-18T16:17:38.090Z,2.40
2019-05-18T16:19:55.051Z,4.85
2019-05-18T16:22:26.002Z,5.08
2019-05-18T16:24:55.387Z,8.68
2019-05-18T16:27:24.681Z,3.70
2019-05-18T16:29:53.842Z,3.77
2019-05-18T16:32:23.283Z,2.90
2019-05-18T16:34:52.414Z,3.55
2019-05-18T16:37:21.747Z,6.42
2019-05-18T16:39:50.814Z,3.52
2019-05-18T16:42:20.054Z,5.08
2019-05-18T16:44:49.403Z,3.62
2019-05-18T16:47:18.546Z,4.97
2019-05-18T16:49:48.105Z,3.65
2019-05-18T16:52:17.312Z,7.87
2019-05-18T16:54:46.438Z,4.55
2019-05-18T16:57:15.594Z,4.33
2019-05-18T16:59:45.066Z,4.15
2019-05-18T17:02:30.314Z,3.47
2019-05-18T17:04:45.213Z,3.80
2019-05-18T17:07:14.272Z,4.03
2019-05-18T17:09:43.357Z,6.00
2019-05-18T17:12:13.093Z,5.50
2019-05-18T17:14:42.541Z,8.60
2019-05-18T17:17:11.892Z,3.12
2019-05-18T17:19:41.962Z,5.58
2019-05-18T17:22:11.317Z,3.02
2019-05-18T17:24:40.664Z,4.35
2019-05-18T17:27:10.148Z,3.87
2019-05-18T17:29:39.214Z,3.50
2019-05-18T17:32:08.395Z,3.65
2019-05-18T17:34:37.513Z,4.70
2019-05-18T17:37:06.934Z,3.58
2019-05-18T17:39:36.021Z,3.35
2019-05-18T17:42:05.519Z,4.17
2019-05-18T17:44:34.783Z,5.72
2019-05-18T17:47:03.867Z,5.93
2019-05-18T17:49:32.941Z,6.33
2019-05-18T17:52:02.565Z,5.67
2019-05-18T17:54:31.647Z,6.67
2019-05-18T17:57:08.632Z,5.40
2019-05-18T17:59:31.644Z,4.15
2019-05-18T18:02:00.771Z,4.70
2019-05-18T18:04:30.367Z,4.27
2019-05-18T18:06:59.415Z,6.37
2019-05-18T18:09:28.522Z,4.23
2019-05-18T18:11:57.655Z,6.90
2019-05-18T18:14:26.735Z,6.20
2019-05-18T18:16:56.093Z,4.53
2019-05-18T18:19:25.467Z,4.67
2019-05-18T18:21:54.577Z,3.43
2019-05-18T18:24:23.678Z,5.00
2019-05-18T18:26:52.788Z,4.30
2019-05-18T18:29:22.507Z,8.60
2019-05-18T18:31:51.873Z,7.07
2019-05-18T18:34:20.967Z,9.10
2019-05-18T18:36:50.102Z,8.13
2019-05-18T18:39:19.266Z,10.73
2019-05-18T18:41:48.508Z,10.73
2019-05-18T18:44:18.068Z,7.37
2019-05-18T18:46:47.149Z,7.93
2019-05-18T18:49:16.242Z,6.80
2019-05-18T18:51:45.387Z,4.97
2019-05-18T18:54:14.471Z,10.40
2019-05-18T18:56:43.547Z,7.90
2019-05-18T18:59:12.638Z,7.20
2019-05-18T19:01:41.710Z,5.43
2019-05-18T19:04:11.101Z,7.57
2019-05-18T19:06:40.520Z,12.33
2019-05-18T19:09:09.659Z,12.53
2019-05-18T19:11:38.782Z,7.70
2019-05-18T19:14:07.881Z,27.77
2019-05-18T19:16:37.012Z,7.57
2019-05-18T19:19:06.432Z,5.73
2019-05-18T19:21:35.634Z,8.17
2019-05-18T19:24:05.754Z,7.37
2019-05-18T19:26:34.914Z,9.57
2019-05-18T19:29:04.484Z,8.83
2019-05-18T19:31:33.593Z,13.97
2019-05-18T19:34:02.673Z,6.23
2019-05-18T19:36:31.758Z,6.97
2019-05-18T19:39:00.863Z,10.00
2019-05-18T19:41:29.914Z,5.90
2019-05-18T19:44:03.915Z,7.67
2019-05-18T19:46:32.968Z,8.27
2019-05-18T19:49:02.054Z,6.63
2019-05-18T19:51:31.415Z,6.20
2019-05-18T19:54:00.535Z,7.47
2019-05-18T19:56:36.911Z,9.10
2019-05-18T19:59:04.637Z,11.07
2019-05-18T20:01:33.989Z,9.27
2019-05-18T20:04:03.112Z,15.57
2019-05-18T20:06:32.489Z,9.03
2019-05-18T20:09:01.638Z,7.43
2019-05-18T20:11:30.718Z,7.67
2019-05-18T20:13:59.834Z,7.87
2019-05-18T20:16:28.969Z,9.73
2019-05-18T20:18:58.081Z,8.77
2019-05-18T20:21:27.466Z,12.27
2019-05-18T20:23:56.786Z,13.10
2019-05-18T20:26:25.905Z,13.77
2019-05-18T20:28:56.648Z,11.20
2019-05-18T20:31:25.968Z,9.73
2019-05-18T20:33:55.068Z,10.87
2019-05-18T20:36:24.170Z,16.00
2019-05-18T20:38:53.507Z,11.93
2019-05-18T20:41:22.634Z,11.40
2019-05-18T20:43:51.745Z,13.70
2019-05-18T20:46:20.844Z,12.87
2019-05-18T20:48:49.927Z,10.27
2019-05-18T20:51:19.041Z,11.03
2019-05-18T20:53:48.606Z,11.30
2019-05-18T20:56:17.728Z,12.03
2019-05-18T20:58:46.826Z,10.83
2019-05-18T21:01:15.899Z,15.70
2019-05-18T21:03:45.026Z,11.10
2019-05-18T21:06:14.111Z,15.37
2019-05-18T21:08:43.195Z,11.50
2019-05-18T21:11:12.258Z,14.30
2019-05-18T21:13:41.391Z,15.23
2019-05-18T21:16:10.475Z,11.83
2019-05-18T21:18:39.541Z,12.40
2019-05-18T21:21:08.906Z,18.60
2019-05-18T21:23:38.239Z,11.33
2019-05-18T21:26:07.303Z,13.67
2019-05-18T21:28:36.623Z,11.20
2019-05-18T21:31:05.684Z,12.37
2019-05-18T21:33:34.789Z,14.07
2019-05-18T21:36:04.119Z,11.47
2019-05-18T21:38:33.211Z,14.70
2019-05-18T21:41:02.330Z,13.10
2019-05-18T21:43:31.479Z,11.83
2019-05-18T21:46:00.618Z,15.73
2019-05-18T21:48:29.730Z,14.30
2019-05-18T21:50:58.803Z,14.50
2019-05-18T21:53:28.148Z,14.13
2019-05-18T21:55:57.511Z,14.07
2019-05-18T21:58:26.624Z,15.93
2019-05-18T22:00:55.658Z,14.83
2019-05-18T22:03:25.054Z,15.30
2019-05-18T22:05:54.227Z,14.20
2019-05-18T22:08:23.332Z,13.83
2019-05-18T22:10:52.979Z,15.53
2019-05-18T22:13:22.112Z,14.97
2019-05-18T22:15:51.626Z,15.20
2019-05-18T22:18:24.713Z,14.97
2019-05-18T22:20:51.521Z,14.60
2019-05-18T22:23:21.151Z,17.20
2019-05-18T22:25:50.224Z,12.73
2019-05-18T22:28:19.390Z,16.10
2019-05-18T22:30:48.474Z,17.60
2019-05-18T22:33:17.588Z,13.93
2019-05-18T22:35:46.666Z,14.83
2019-05-18T22:38:15.759Z,14.00
2019-05-18T22:40:45.249Z,13.87
2019-05-18T22:43:14.459Z,13.63
2019-05-18T22:45:43.546Z,14.23
2019-05-18T22:48:12.686Z,15.87
2019-05-18T22:50:41.763Z,16.40
2019-05-18T22:53:10.850Z,15.57
2019-05-18T22:55:39.954Z,14.53
2019-05-18T22:58:09.053Z,12.13
2019-05-18T23:00:38.144Z,12.13
2019-05-18T23:03:07.252Z,11.80
2019-05-18T23:05:36.345Z,10.43
2019-05-18T23:08:08.888Z,20.03
2019-05-18T23:10:38.094Z,22.90
2019-05-18T23:13:07.192Z,11.63
2019-05-18T23:15:36.334Z,12.00
2019-05-18T23:18:05.426Z,13.60
2019-05-18T23:20:34.532Z,12.50
2019-05-18T23:23:03.632Z,14.33
2019-05-18T23:25:32.771Z,12.23
2019-05-18T23:28:01.980Z,10.73
2019-05-18T23:30:31.083Z,10.00
2019-05-18T23:33:00.422Z,13.47
2019-05-18T23:35:29.808Z,14.27
2019-05-18T23:37:59.547Z,13.17
2019-05-18T23:40:28.988Z,13.07
2019-05-18T23:42:58.447Z,12.53
2019-05-18T23:45:28.054Z,14.17
2019-05-18T23:47:59.471Z,14.00
2019-05-18T23:50:27.897Z,12.73
2019-05-18T23:52:56.978Z,12.77
2019-05-18T23:55:26.089Z,12.47
2019-05-18T23:57:55.196Z,13.60
